createdAt,value
2022-12-07T00:00:04.354Z,975.97
2022-12-07T00:01:03.634Z,976.03
2022-12-07T00:02:03.851Z,975.80
2022-12-07T00:03:03.709Z,975.92
2022-12-07T00:04:03.547Z,976.06
2022-12-07T00:05:03.389Z,976.00
2022-12-07T00:06:03.387Z,975.94
2022-12-07T00:07:03.373Z,975.86
2022-12-07T00:08:03.361Z,976.06
2022-12-07T00:09:03.252Z,975.89
2022-12-07T00:10:03.939Z,975.86
2022-12-07T00:11:03.221Z,975.75
2022-12-07T00:12:03.120Z,975.73
2022-12-07T00:13:02.979Z,975.78
2022-12-07T00:14:03.001Z,975.73
2022-12-07T00:15:02.905Z,975.84
2022-12-07T00:16:03.091Z,975.70
2022-12-07T00:17:03.971Z,975.76
2022-12-07T00:18:03.864Z,975.67
2022-12-07T00:19:03.737Z,975.67
2022-12-07T00:20:04.322Z,975.78
2022-12-07T00:21:03.621Z,975.67
2022-12-07T00:22:03.512Z,975.64
2022-12-07T00:23:03.481Z,975.62
2022-12-07T00:24:03.404Z,975.56
2022-12-07T00:25:03.305Z,975.51
2022-12-07T00:26:03.304Z,975.56
2022-12-07T00:27:03.337Z,975.56
2022-12-07T00:28:03.207Z,975.48
2022-12-07T00:29:03.213Z,975.34
2022-12-07T00:30:04.230Z,975.56
2022-12-07T00:31:03.158Z,975.45
2022-12-07T00:32:03.325Z,975.48
2022-12-07T00:33:03.210Z,975.40
2022-12-07T00:34:03.157Z,975.40
2022-12-07T00:35:03.091Z,975.48
2022-12-07T00:36:03.060Z,975.54
2022-12-07T00:37:03.023Z,975.34
2022-12-07T00:38:02.878Z,975.40
2022-12-07T00:39:03.778Z,975.45
2022-12-07T00:40:04.303Z,975.45
2022-12-07T00:41:03.699Z,975.27
2022-12-07T00:42:03.574Z,975.45
2022-12-07T00:43:03.526Z,975.32
2022-12-07T00:44:03.441Z,975.30
2022-12-07T00:45:03.303Z,975.30
2022-12-07T00:46:03.447Z,975.19
2022-12-07T00:47:03.254Z,975.34
2022-12-07T00:48:03.173Z,975.19
2022-12-07T00:49:03.153Z,975.24
2022-12-07T00:50:04.002Z,975.13
2022-12-07T00:51:03.083Z,975.19
2022-12-07T00:52:03.124Z,975.19
2022-12-07T00:53:03.122Z,975.21
2022-12-07T00:54:03.038Z,975.02
2022-12-07T00:55:02.967Z,975.10
2022-12-07T00:56:03.795Z,975.24
2022-12-07T00:57:03.796Z,974.92
2022-12-07T00:58:03.655Z,975.13
2022-12-07T00:59:03.690Z,975.16
2022-12-07T01:00:04.342Z,975.13
2022-12-07T01:01:03.731Z,975.13
2022-12-07T01:02:03.664Z,975.05
2022-12-07T01:03:03.628Z,975.27
2022-12-07T01:04:03.477Z,974.99
2022-12-07T01:05:03.471Z,975.16
2022-12-07T01:06:03.526Z,975.19
2022-12-07T01:07:03.454Z,975.14
2022-12-07T01:08:03.448Z,974.95
2022-12-07T01:09:03.276Z,975.00
2022-12-07T01:10:04.113Z,975.14
2022-12-07T01:11:03.467Z,974.95
2022-12-07T01:12:03.490Z,975.11
2022-12-07T01:13:03.498Z,975.03
2022-12-07T01:14:03.430Z,975.03
2022-12-07T01:15:03.461Z,974.97
2022-12-07T01:16:03.360Z,974.97
2022-12-07T01:17:03.507Z,974.93
2022-12-07T01:18:03.209Z,975.03
2022-12-07T01:19:03.158Z,975.20
2022-12-07T01:20:03.721Z,975.15
2022-12-07T01:21:03.153Z,975.26
2022-12-07T01:22:03.115Z,975.17
2022-12-07T01:23:03.106Z,975.26
2022-12-07T01:24:03.191Z,975.18
2022-12-07T01:25:03.023Z,975.09
2022-12-07T01:26:02.903Z,975.23
2022-12-07T01:27:02.949Z,975.01
2022-12-07T01:28:02.918Z,975.21
2022-12-07T01:29:03.858Z,974.95
2022-12-07T01:30:04.233Z,975.01
2022-12-07T01:31:03.933Z,975.12
2022-12-07T01:32:03.601Z,975.01
2022-12-07T01:33:03.536Z,975.13
2022-12-07T01:34:03.424Z,975.24
2022-12-07T01:35:03.320Z,975.13
2022-12-07T01:36:03.271Z,974.96
2022-12-07T01:37:03.176Z,975.05
2022-12-07T01:38:03.766Z,975.05
2022-12-07T01:39:03.682Z,975.13
2022-12-07T01:40:04.556Z,975.02
2022-12-07T01:41:03.549Z,974.97
2022-12-07T01:42:03.523Z,975.16
2022-12-07T01:43:03.440Z,975.02
2022-12-07T01:44:03.426Z,975.11
2022-12-07T01:45:03.459Z,975.05
2022-12-07T01:46:03.563Z,975.00
2022-12-07T01:47:03.427Z,975.11
2022-12-07T01:48:03.366Z,975.03
2022-12-07T01:49:03.304Z,975.03
2022-12-07T01:50:03.712Z,975.22
2022-12-07T01:51:03.295Z,975.20
2022-12-07T01:52:03.203Z,975.03
2022-12-07T01:53:03.101Z,975.09
2022-12-07T01:54:03.093Z,975.14
2022-12-07T01:55:03.193Z,974.97
2022-12-07T01:56:03.201Z,975.11
2022-12-07T01:57:03.121Z,974.97
2022-12-07T01:58:03.086Z,974.85
2022-12-07T01:59:03.044Z,974.97
2022-12-07T02:00:03.427Z,975.03
2022-12-07T02:01:04.022Z,974.98
2022-12-07T02:02:03.953Z,974.90
2022-12-07T02:03:03.928Z,974.87
2022-12-07T02:04:03.767Z,975.00
2022-12-07T02:05:03.839Z,974.93
2022-12-07T02:06:03.788Z,974.82
2022-12-07T02:07:03.866Z,974.88
2022-12-07T02:08:03.894Z,974.85
2022-12-07T02:09:03.713Z,974.76
2022-12-07T02:10:04.081Z,974.82
2022-12-07T02:11:03.633Z,974.76
2022-12-07T02:12:03.667Z,974.79
2022-12-07T02:13:03.639Z,974.71
2022-12-07T02:14:03.476Z,974.71
2022-12-07T02:15:03.585Z,974.76
2022-12-07T02:16:03.658Z,974.71
2022-12-07T02:17:03.520Z,974.68
2022-12-07T02:18:03.444Z,974.76
2022-12-07T02:19:03.404Z,974.65
2022-12-07T02:20:04.081Z,974.85
2022-12-07T02:21:03.324Z,974.74
2022-12-07T02:22:03.215Z,974.82
2022-12-07T02:23:03.180Z,974.76
2022-12-07T02:24:03.047Z,974.71
2022-12-07T02:25:03.133Z,974.76
2022-12-07T02:26:03.020Z,974.76
2022-12-07T02:27:02.919Z,974.63
2022-12-07T02:28:02.947Z,974.71
2022-12-07T02:29:03.868Z,974.82
2022-12-07T02:30:04.476Z,974.68
2022-12-07T02:31:03.983Z,974.71
2022-12-07T02:32:03.648Z,974.76
2022-12-07T02:33:04.402Z,974.71
2022-12-07T02:34:03.595Z,974.57
2022-12-07T02:35:03.493Z,974.74
2022-12-07T02:36:03.483Z,974.68
2022-12-07T02:37:03.347Z,974.79
2022-12-07T02:38:03.330Z,974.60
2022-12-07T02:39:03.256Z,974.54
2022-12-07T02:40:03.929Z,974.49
2022-12-07T02:41:03.197Z,974.57
2022-12-07T02:42:03.206Z,974.46
2022-12-07T02:43:03.156Z,974.52
2022-12-07T02:44:03.112Z,974.52
2022-12-07T02:45:03.098Z,974.57
2022-12-07T02:46:03.119Z,974.57
2022-12-07T02:47:03.035Z,974.63
2022-12-07T02:48:03.064Z,974.52
2022-12-07T02:49:02.889Z,974.49
2022-12-07T02:50:03.460Z,974.46
2022-12-07T02:51:03.850Z,974.60
2022-12-07T02:52:03.747Z,974.52
2022-12-07T02:53:03.628Z,974.57
2022-12-07T02:54:03.562Z,974.55
2022-12-07T02:55:03.495Z,974.55
2022-12-07T02:56:03.423Z,974.58
2022-12-07T02:57:03.383Z,974.52
2022-12-07T02:58:03.442Z,974.52
2022-12-07T02:59:03.395Z,974.63
2022-12-07T03:00:03.930Z,974.63
2022-12-07T03:01:03.168Z,974.60
2022-12-07T03:02:03.326Z,974.52
2022-12-07T03:03:03.259Z,974.47
2022-12-07T03:04:03.141Z,974.55
2022-12-07T03:05:03.104Z,974.49
2022-12-07T03:06:03.117Z,974.41
2022-12-07T03:07:03.033Z,974.49
2022-12-07T03:08:03.170Z,974.52
2022-12-07T03:09:03.012Z,974.55
2022-12-07T03:10:03.382Z,974.46
2022-12-07T03:11:02.875Z,974.38
2022-12-07T03:12:03.841Z,974.41
2022-12-07T03:13:03.730Z,974.29
2022-12-07T03:14:03.749Z,974.35
2022-12-07T03:15:03.737Z,974.35
2022-12-07T03:16:03.989Z,974.40
2022-12-07T03:17:03.769Z,974.26
2022-12-07T03:18:03.704Z,974.38
2022-12-07T03:19:03.653Z,974.38
2022-12-07T03:20:04.199Z,974.51
2022-12-07T03:21:03.577Z,974.32
2022-12-07T03:22:03.626Z,974.35
2022-12-07T03:23:03.588Z,974.35
2022-12-07T03:24:03.373Z,974.37
2022-12-07T03:25:03.393Z,974.23
2022-12-07T03:26:03.275Z,974.26
2022-12-07T03:27:03.266Z,974.23
2022-12-07T03:28:03.143Z,974.29
2022-12-07T03:29:04.001Z,974.29
2022-12-07T03:30:03.564Z,974.20
2022-12-07T03:31:03.199Z,974.26
2022-12-07T03:32:02.903Z,974.06
2022-12-07T03:33:02.856Z,974.12
2022-12-07T03:34:03.799Z,974.01
2022-12-07T03:35:03.681Z,974.26
2022-12-07T03:36:03.703Z,974.06
2022-12-07T03:37:03.612Z,974.12
2022-12-07T03:38:03.615Z,974.03
2022-12-07T03:39:03.524Z,974.06
2022-12-07T03:40:04.081Z,974.06
2022-12-07T03:41:03.431Z,974.12
2022-12-07T03:42:03.399Z,974.15
2022-12-07T03:43:03.381Z,974.03
2022-12-07T03:44:03.334Z,974.15
2022-12-07T03:45:03.227Z,973.95
2022-12-07T03:46:03.398Z,974.09
2022-12-07T03:47:03.531Z,973.98
2022-12-07T03:48:03.285Z,974.01
2022-12-07T03:49:03.182Z,973.89
2022-12-07T03:50:03.619Z,974.03
2022-12-07T03:51:03.153Z,974.09
2022-12-07T03:52:03.183Z,974.06
2022-12-07T03:53:03.212Z,974.11
2022-12-07T03:54:03.237Z,974.20
2022-12-07T03:55:03.109Z,974.12
2022-12-07T03:56:03.234Z,974.09
2022-12-07T03:57:03.184Z,974.17
2022-12-07T03:58:03.092Z,973.95
2022-12-07T03:59:02.976Z,974.11
2022-12-07T04:00:03.572Z,974.09
2022-12-07T04:01:03.025Z,974.09
2022-12-07T04:02:02.983Z,974.00
2022-12-07T04:03:03.047Z,973.89
2022-12-07T04:04:02.827Z,973.98
2022-12-07T04:05:03.836Z,974.03
2022-12-07T04:06:03.841Z,974.14
2022-12-07T04:07:03.762Z,974.06
2022-12-07T04:08:03.966Z,974.14
2022-12-07T04:09:03.662Z,974.11
2022-12-07T04:10:04.286Z,974.09
2022-12-07T04:11:03.619Z,974.03
2022-12-07T04:12:03.634Z,974.19
2022-12-07T04:13:03.549Z,974.06
2022-12-07T04:14:03.462Z,974.17
2022-12-07T04:15:03.431Z,974.11
2022-12-07T04:16:03.587Z,973.86
2022-12-07T04:17:03.440Z,973.97
2022-12-07T04:18:03.401Z,973.78
2022-12-07T04:19:03.409Z,973.91
2022-12-07T04:20:03.752Z,973.94
2022-12-07T04:21:03.339Z,973.89
2022-12-07T04:22:03.385Z,973.83
2022-12-07T04:23:03.404Z,973.86
2022-12-07T04:24:03.532Z,973.83
2022-12-07T04:25:03.468Z,973.89
2022-12-07T04:26:03.457Z,973.75
2022-12-07T04:27:03.389Z,973.72
2022-12-07T04:28:03.293Z,973.66
2022-12-07T04:29:08.116Z,973.69
2022-12-07T04:30:03.835Z,973.63
2022-12-07T04:31:03.235Z,973.69
2022-12-07T04:32:03.106Z,973.83
2022-12-07T04:33:02.995Z,973.83
2022-12-07T04:34:08.017Z,973.77
2022-12-07T04:35:03.004Z,973.69
2022-12-07T04:36:03.157Z,973.74
2022-12-07T04:37:03.145Z,973.77
2022-12-07T04:38:03.175Z,973.85
2022-12-07T04:39:03.092Z,973.83
2022-12-07T04:40:03.822Z,973.74
2022-12-07T04:41:02.996Z,973.80
2022-12-07T04:42:02.949Z,973.77
2022-12-07T04:43:02.871Z,973.80
2022-12-07T04:44:03.053Z,973.91
2022-12-07T04:45:03.337Z,973.80
2022-12-07T04:46:03.020Z,973.85
2022-12-07T04:47:03.106Z,973.91
2022-12-07T04:48:03.844Z,973.80
2022-12-07T04:49:03.857Z,973.99
2022-12-07T04:50:04.408Z,973.83
2022-12-07T04:51:03.783Z,973.80
2022-12-07T04:52:03.806Z,973.69
2022-12-07T04:53:03.697Z,973.85
2022-12-07T04:54:03.652Z,973.93
2022-12-07T04:55:03.586Z,973.99
2022-12-07T04:56:03.561Z,973.94
2022-12-07T04:57:03.511Z,973.94
2022-12-07T04:58:03.446Z,973.91
2022-12-07T04:59:03.372Z,973.91
2022-12-07T05:00:03.896Z,973.77
2022-12-07T05:01:03.469Z,973.80
2022-12-07T05:02:03.558Z,973.85
2022-12-07T05:03:03.430Z,973.80
2022-12-07T05:04:03.490Z,973.80
2022-12-07T05:05:03.448Z,973.93
2022-12-07T05:06:03.459Z,973.80
2022-12-07T05:07:08.488Z,973.77
2022-12-07T05:08:03.553Z,973.82
2022-12-07T05:09:03.478Z,973.74
2022-12-07T05:10:03.927Z,973.80
2022-12-07T05:11:03.413Z,973.88
2022-12-07T05:12:03.455Z,973.74
2022-12-07T05:13:03.467Z,973.85
2022-12-07T05:14:03.406Z,973.82
2022-12-07T05:15:03.438Z,973.77
2022-12-07T05:16:03.394Z,973.80
2022-12-07T05:17:03.314Z,973.85
2022-12-07T05:18:03.344Z,973.74
2022-12-07T05:19:03.323Z,973.68
2022-12-07T05:20:03.985Z,973.82
2022-12-07T05:21:03.075Z,973.96
2022-12-07T05:22:03.415Z,973.80
2022-12-07T05:23:03.091Z,973.88
2022-12-07T05:24:02.931Z,973.80
2022-12-07T05:25:03.198Z,973.77
2022-12-07T05:26:08.133Z,973.71
2022-12-07T05:27:02.952Z,973.71
2022-12-07T05:28:02.990Z,973.77
2022-12-07T05:29:03.048Z,973.77
2022-12-07T05:30:03.513Z,973.63
2022-12-07T05:31:03.808Z,973.71
2022-12-07T05:32:03.855Z,973.77
2022-12-07T05:33:03.667Z,973.76
2022-12-07T05:34:03.874Z,973.65
2022-12-07T05:35:03.667Z,973.76
2022-12-07T05:36:03.759Z,973.68
2022-12-07T05:37:03.871Z,973.65
2022-12-07T05:38:03.815Z,973.65
2022-12-07T05:39:03.740Z,973.76
2022-12-07T05:40:03.489Z,973.47
2022-12-07T05:41:03.074Z,973.65
2022-12-07T05:42:02.956Z,973.71
2022-12-07T05:43:05.278Z,973.74
2022-12-07T05:44:03.832Z,973.79
2022-12-07T05:45:02.891Z,973.74
2022-12-07T05:46:04.055Z,973.76
2022-12-07T05:47:03.769Z,973.68
2022-12-07T05:48:03.798Z,973.62
2022-12-07T05:49:03.638Z,973.49
2022-12-07T05:50:04.199Z,973.62
2022-12-07T05:51:03.601Z,973.71
2022-12-07T05:52:03.463Z,973.65
2022-12-07T05:53:03.475Z,973.62
2022-12-07T05:54:03.495Z,973.59
2022-12-07T05:55:03.411Z,973.73
2022-12-07T05:56:03.488Z,973.65
2022-12-07T05:57:03.335Z,973.62
2022-12-07T05:58:03.316Z,973.76
2022-12-07T05:59:03.307Z,973.82
2022-12-07T06:00:03.922Z,973.68
2022-12-07T06:01:03.277Z,973.70
2022-12-07T06:02:03.647Z,973.68
2022-12-07T06:03:03.531Z,973.68
2022-12-07T06:04:03.142Z,973.62
2022-12-07T06:05:03.091Z,973.70
2022-12-07T06:06:03.252Z,973.68
2022-12-07T06:07:03.240Z,973.73
2022-12-07T06:08:06.609Z,973.70
2022-12-07T06:09:02.991Z,973.67
2022-12-07T06:10:03.669Z,973.67
2022-12-07T06:11:03.056Z,973.73
2022-12-07T06:12:02.942Z,973.67
2022-12-07T06:13:03.847Z,973.70
2022-12-07T06:14:03.848Z,973.95
2022-12-07T06:15:03.798Z,973.73
2022-12-07T06:16:03.756Z,973.76
2022-12-07T06:17:03.960Z,973.59
2022-12-07T06:18:03.794Z,973.87
2022-12-07T06:19:03.657Z,973.78
2022-12-07T06:20:04.054Z,973.70
2022-12-07T06:21:03.562Z,973.73
2022-12-07T06:22:03.675Z,973.81
2022-12-07T06:23:03.611Z,973.64
2022-12-07T06:24:03.456Z,973.73
2022-12-07T06:25:09.018Z,973.59
2022-12-07T06:26:03.311Z,973.61
2022-12-07T06:27:03.209Z,973.73
2022-12-07T06:28:03.197Z,973.61
2022-12-07T06:29:03.138Z,973.67
2022-12-07T06:30:03.584Z,973.73
2022-12-07T06:31:03.025Z,973.70
2022-12-07T06:32:03.124Z,973.70
2022-12-07T06:33:02.933Z,973.75
2022-12-07T06:34:03.810Z,973.73
2022-12-07T06:35:05.017Z,973.72
2022-12-07T06:36:03.616Z,973.59
2022-12-07T06:37:03.809Z,973.70
2022-12-07T06:38:03.478Z,973.78
2022-12-07T06:39:03.426Z,973.81
2022-12-07T06:40:04.157Z,973.86
2022-12-07T06:41:03.830Z,973.73
2022-12-07T06:42:03.580Z,973.84
2022-12-07T06:43:03.505Z,973.78
2022-12-07T06:44:03.509Z,973.73
2022-12-07T06:45:03.545Z,973.72
2022-12-07T06:46:03.586Z,973.78
2022-12-07T06:47:40.772Z,973.98
2022-12-07T06:48:03.580Z,973.78
2022-12-07T06:49:03.490Z,974.03
2022-12-07T06:50:04.264Z,973.95
2022-12-07T06:51:03.450Z,973.83
2022-12-07T06:52:03.422Z,973.81
2022-12-07T06:53:03.250Z,973.89
2022-12-07T06:54:03.292Z,973.95
2022-12-07T06:55:03.346Z,973.92
2022-12-07T06:56:03.235Z,974.06
2022-12-07T06:57:03.340Z,974.00
2022-12-07T06:58:03.135Z,974.06
2022-12-07T06:59:03.063Z,973.95
2022-12-07T07:00:04.060Z,973.98
2022-12-07T07:01:03.017Z,973.97
2022-12-07T07:02:02.996Z,974.06
2022-12-07T07:03:03.002Z,974.14
2022-12-07T07:04:02.893Z,974.00
2022-12-07T07:05:03.815Z,974.09
2022-12-07T07:06:03.787Z,974.14
2022-12-07T07:07:03.660Z,974.00
2022-12-07T07:08:24.090Z,974.25
2022-12-07T07:09:03.650Z,974.23
2022-12-07T07:10:04.451Z,974.14
2022-12-07T07:11:03.434Z,974.17
2022-12-07T07:12:03.361Z,974.14
2022-12-07T07:13:03.338Z,974.20
2022-12-07T07:14:03.368Z,974.20
2022-12-07T07:15:03.304Z,974.19
2022-12-07T07:16:03.249Z,974.08
2022-12-07T07:17:03.303Z,974.14
2022-12-07T07:18:08.327Z,974.17
2022-12-07T07:19:03.296Z,974.06
2022-12-07T07:20:03.704Z,974.11
2022-12-07T07:21:03.156Z,974.14
2022-12-07T07:22:03.208Z,974.22
2022-12-07T07:23:03.243Z,974.36
2022-12-07T07:24:03.276Z,974.31
2022-12-07T07:25:03.207Z,974.28
2022-12-07T07:26:03.102Z,974.28
2022-12-07T07:27:08.180Z,974.19
2022-12-07T07:28:03.059Z,974.28
2022-12-07T07:29:02.971Z,974.22
2022-12-07T07:30:04.779Z,974.14
2022-12-07T07:31:03.945Z,974.19
2022-12-07T07:32:07.201Z,974.19
2022-12-07T07:34:02.956Z,974.16
2022-12-07T07:35:02.879Z,974.08
2022-12-07T07:36:03.864Z,974.13
2022-12-07T07:37:03.794Z,974.16
2022-12-07T07:38:03.689Z,974.08
2022-12-07T07:39:03.606Z,974.22
2022-12-07T07:40:04.147Z,974.22
2022-12-07T07:41:03.682Z,974.11
2022-12-07T07:42:03.588Z,974.10
2022-12-07T07:43:03.577Z,974.22
2022-12-07T07:44:03.465Z,974.19
2022-12-07T07:45:03.427Z,974.30
2022-12-07T07:46:03.569Z,974.19
2022-12-07T07:47:03.320Z,974.13
2022-12-07T07:48:03.459Z,974.19
2022-12-07T07:49:03.330Z,974.19
2022-12-07T07:50:04.234Z,974.32
2022-12-07T07:51:03.287Z,974.16
2022-12-07T07:52:03.302Z,974.13
2022-12-07T07:53:03.303Z,974.04
2022-12-07T07:54:03.199Z,974.04
2022-12-07T07:55:03.091Z,974.16
2022-12-07T07:56:03.172Z,974.13
2022-12-07T07:57:03.072Z,974.26
2022-12-07T07:58:03.235Z,974.12
2022-12-07T07:59:03.404Z,974.15
2022-12-07T08:00:03.851Z,974.07
2022-12-07T08:01:03.250Z,974.18
2022-12-07T08:02:03.245Z,974.15
2022-12-07T08:03:03.052Z,974.12
2022-12-07T08:04:03.042Z,974.04
2022-12-07T08:05:03.458Z,974.07
2022-12-07T08:06:03.443Z,974.15
2022-12-07T08:07:03.509Z,974.09
2022-12-07T08:08:03.556Z,974.12
2022-12-07T08:09:03.303Z,974.12
2022-12-07T08:10:03.967Z,974.18
2022-12-07T08:11:03.334Z,974.23
2022-12-07T08:12:03.214Z,973.98
2022-12-07T08:13:03.218Z,974.01
2022-12-07T08:14:03.105Z,974.01
2022-12-07T08:15:03.053Z,973.92
2022-12-07T08:16:03.051Z,974.04
2022-12-07T08:17:03.878Z,974.15
2022-12-07T08:18:03.824Z,974.20
2022-12-07T08:19:02.936Z,974.28
2022-12-07T08:20:04.312Z,974.12
2022-12-07T08:21:03.807Z,974.14
2022-12-07T08:22:02.852Z,974.14
2022-12-07T08:23:03.790Z,974.25
2022-12-07T08:24:03.763Z,974.20
2022-12-07T08:25:03.596Z,974.23
2022-12-07T08:26:03.508Z,974.28
2022-12-07T08:27:03.503Z,974.22
2022-12-07T08:28:03.489Z,974.25
2022-12-07T08:29:03.403Z,974.33
2022-12-07T08:30:03.925Z,974.28
2022-12-07T08:31:03.489Z,974.08
2022-12-07T08:32:09.964Z,974.19
2022-12-07T08:33:03.305Z,974.24
2022-12-07T08:34:03.194Z,974.30
2022-12-07T08:35:03.155Z,974.21
2022-12-07T08:36:03.108Z,974.16
2022-12-07T08:37:03.006Z,974.21
2022-12-07T08:38:02.882Z,974.35
2022-12-07T08:39:32.976Z,974.32
2022-12-07T08:40:04.361Z,974.18
2022-12-07T08:41:03.691Z,974.24
2022-12-07T08:42:03.939Z,974.21
2022-12-07T08:43:03.546Z,974.15
2022-12-07T08:44:03.515Z,974.18
2022-12-07T08:45:03.429Z,974.15
2022-12-07T08:46:03.584Z,974.18
2022-12-07T08:47:03.438Z,974.18
2022-12-07T08:48:03.456Z,974.15
2022-12-07T08:49:03.471Z,974.20
2022-12-07T08:50:04.110Z,974.23
2022-12-07T08:51:03.361Z,974.12
2022-12-07T08:52:03.421Z,974.26
2022-12-07T08:53:03.376Z,974.29
2022-12-07T08:54:03.233Z,974.23
2022-12-07T08:55:03.208Z,974.14
2022-12-07T08:56:03.287Z,974.09
2022-12-07T08:57:03.206Z,974.06
2022-12-07T08:58:03.190Z,974.17
2022-12-07T08:59:03.090Z,974.17
2022-12-07T09:00:03.788Z,974.20
2022-12-07T09:01:03.198Z,974.22
2022-12-07T09:02:03.224Z,974.00
2022-12-07T09:03:03.040Z,974.25
2022-12-07T09:04:03.032Z,974.30
2022-12-07T09:05:02.964Z,974.27
2022-12-07T09:06:03.296Z,974.19
2022-12-07T09:07:03.126Z,974.30
2022-12-07T09:08:03.956Z,974.18
2022-12-07T09:09:03.826Z,974.16
2022-12-07T09:10:04.172Z,974.29
2022-12-07T09:11:03.738Z,974.15
2022-12-07T09:12:03.642Z,974.29
2022-12-07T09:13:03.564Z,974.15
2022-12-07T09:14:03.556Z,974.23
2022-12-07T09:15:03.426Z,974.01
2022-12-07T09:16:03.387Z,974.06
2022-12-07T09:17:03.433Z,974.29
2022-12-07T09:18:03.273Z,974.15
2022-12-07T09:19:03.855Z,974.26
2022-12-07T09:20:03.303Z,974.20
2022-12-07T09:21:02.942Z,974.31
2022-12-07T09:22:02.913Z,974.06
2022-12-07T09:23:03.807Z,974.17
2022-12-07T09:24:03.901Z,974.17
2022-12-07T09:25:03.770Z,974.08
2022-12-07T09:26:11.042Z,974.19
2022-12-07T09:27:03.702Z,974.25
2022-12-07T09:28:03.667Z,974.36
2022-12-07T09:29:03.593Z,974.22
2022-12-07T09:30:04.297Z,974.22
2022-12-07T09:31:25.687Z,974.27
2022-12-07T09:32:11.729Z,974.16
2022-12-07T09:33:03.344Z,974.19
2022-12-07T09:34:03.411Z,974.27
2022-12-07T09:35:03.224Z,974.38
2022-12-07T09:36:03.176Z,974.27
2022-12-07T09:37:03.222Z,974.18
2022-12-07T09:38:03.115Z,974.29
2022-12-07T09:39:03.183Z,974.24
2022-12-07T09:40:04.144Z,974.24
2022-12-07T09:41:03.262Z,974.26
2022-12-07T09:42:03.181Z,973.98
2022-12-07T09:43:03.333Z,974.26
2022-12-07T09:44:03.131Z,974.21
2022-12-07T09:45:03.101Z,974.24
2022-12-07T09:46:03.147Z,974.23
2022-12-07T09:47:03.080Z,974.26
2022-12-07T09:48:03.000Z,974.23
2022-12-07T09:49:03.057Z,974.15
2022-12-07T09:50:03.859Z,974.21
2022-12-07T09:51:03.172Z,974.07
2022-12-07T09:52:03.073Z,974.12
2022-12-07T09:53:03.100Z,974.32
2022-12-07T09:54:03.004Z,973.90
2022-12-07T09:55:03.506Z,974.09
2022-12-07T09:56:03.013Z,973.87
2022-12-07T09:57:02.923Z,974.06
2022-12-07T09:58:03.181Z,974.18
2022-12-07T09:59:02.972Z,974.01
2022-12-07T10:00:02.897Z,973.95
2022-12-07T10:01:03.872Z,974.03
2022-12-07T10:02:03.838Z,974.12
2022-12-07T10:03:03.688Z,973.95
2022-12-07T10:04:03.646Z,973.92
2022-12-07T10:05:04.286Z,974.09
2022-12-07T10:06:03.582Z,973.95
2022-12-07T10:07:03.537Z,974.06
2022-12-07T10:08:03.633Z,973.94
2022-12-07T10:09:03.482Z,974.06
2022-12-07T10:10:03.486Z,973.94
2022-12-07T10:11:03.402Z,973.97
2022-12-07T10:12:03.344Z,973.97
2022-12-07T10:13:03.280Z,973.94
2022-12-07T10:14:03.194Z,973.88
2022-12-07T10:15:08.903Z,973.94
2022-12-07T10:16:07.637Z,973.94
2022-12-07T10:17:03.196Z,973.82
2022-12-07T10:18:03.128Z,973.91
2022-12-07T10:19:03.346Z,973.71
2022-12-07T10:20:03.339Z,973.79
2022-12-07T10:21:03.357Z,973.82
2022-12-07T10:22:03.354Z,973.93
2022-12-07T10:23:03.267Z,973.82
2022-12-07T10:24:03.268Z,973.91
2022-12-07T10:25:03.951Z,973.88
2022-12-07T10:26:03.311Z,973.88
2022-12-07T10:27:03.322Z,973.65
2022-12-07T10:28:03.274Z,973.90
2022-12-07T10:29:03.192Z,973.93
2022-12-07T10:30:03.066Z,973.87
2022-12-07T10:31:03.417Z,973.93
2022-12-07T10:32:03.121Z,973.85
2022-12-07T10:33:03.085Z,973.82
2022-12-07T10:34:03.058Z,973.90
2022-12-07T10:35:03.774Z,974.04
2022-12-07T10:36:03.072Z,973.82
2022-12-07T10:37:03.043Z,973.84
2022-12-07T10:38:03.006Z,973.76
2022-12-07T10:39:03.836Z,973.87
2022-12-07T10:40:03.843Z,973.90
2022-12-07T10:41:02.915Z,973.81
2022-12-07T10:42:02.918Z,973.79
2022-12-07T10:43:02.919Z,973.87
2022-12-07T10:44:03.865Z,973.64
2022-12-07T10:45:03.703Z,973.67
2022-12-07T10:46:07.852Z,973.65
2022-12-07T10:47:03.062Z,973.67
2022-12-07T10:48:02.944Z,973.87
2022-12-07T10:49:02.994Z,973.67
2022-12-07T10:50:03.156Z,973.84
2022-12-07T10:51:02.954Z,973.87
2022-12-07T10:52:03.012Z,973.73
2022-12-07T10:53:03.112Z,973.72
2022-12-07T10:54:03.031Z,973.78
2022-12-07T10:55:03.676Z,973.84
2022-12-07T10:56:03.018Z,973.78
2022-12-07T10:57:03.096Z,973.72
2022-12-07T10:58:02.932Z,973.83
2022-12-07T10:59:02.969Z,973.69
2022-12-07T11:00:02.966Z,973.69
2022-12-07T11:01:03.031Z,973.75
2022-12-07T11:02:03.108Z,973.72
2022-12-07T11:03:03.027Z,973.66
2022-12-07T11:04:02.921Z,973.66
2022-12-07T11:05:03.487Z,973.80
2022-12-07T11:06:02.986Z,973.72
2022-12-07T11:07:02.969Z,973.63
2022-12-07T11:08:03.103Z,973.94
2022-12-07T11:09:03.079Z,973.83
2022-12-07T11:10:11.025Z,973.77
2022-12-07T11:11:03.502Z,973.88
2022-12-07T11:12:03.523Z,973.74
2022-12-07T11:13:03.489Z,973.74
2022-12-07T11:14:03.396Z,973.71
2022-12-07T11:15:03.393Z,973.71
2022-12-07T11:16:03.479Z,973.63
2022-12-07T11:17:03.358Z,973.69
2022-12-07T11:18:03.418Z,973.66
2022-12-07T11:19:03.304Z,973.66
2022-12-07T11:20:04.106Z,973.57
2022-12-07T11:21:03.166Z,973.74
2022-12-07T11:22:03.251Z,973.71
2022-12-07T11:23:03.107Z,973.79
2022-12-07T11:24:03.151Z,973.77
2022-12-07T11:25:03.092Z,973.77
2022-12-07T11:26:03.093Z,973.68
2022-12-07T11:27:03.238Z,973.71
2022-12-07T11:28:03.202Z,973.74
2022-12-07T11:29:03.205Z,973.74
2022-12-07T11:30:04.042Z,973.74
2022-12-07T11:31:03.204Z,973.71
2022-12-07T11:32:03.165Z,973.79
2022-12-07T11:33:02.940Z,973.68
2022-12-07T11:34:02.866Z,973.71
2022-12-07T11:35:03.848Z,973.63
2022-12-07T11:36:03.885Z,973.74
2022-12-07T11:37:03.851Z,973.57
2022-12-07T11:38:02.952Z,973.65
2022-12-07T11:39:02.944Z,973.68
2022-12-07T11:40:03.469Z,973.63
2022-12-07T11:41:02.906Z,973.52
2022-12-07T11:42:02.887Z,973.77
2022-12-07T11:43:03.209Z,973.71
2022-12-07T11:44:03.231Z,973.63
2022-12-07T11:45:03.316Z,973.65
2022-12-07T11:46:03.301Z,973.65
2022-12-07T11:47:03.497Z,973.74
2022-12-07T11:48:03.369Z,973.79
2022-12-07T11:49:03.937Z,973.63
2022-12-07T11:50:03.750Z,973.57
2022-12-07T11:51:03.799Z,973.74
2022-12-07T11:52:03.731Z,973.65
2022-12-07T11:53:03.689Z,973.60
2022-12-07T11:54:03.906Z,973.65
2022-12-07T11:55:03.755Z,973.65
2022-12-07T11:56:03.812Z,973.65
2022-12-07T11:57:03.683Z,973.54
2022-12-07T11:58:03.667Z,973.54
2022-12-07T11:59:03.625Z,973.52
2022-12-07T12:00:04.288Z,973.54
2022-12-07T12:01:03.626Z,973.52
2022-12-07T12:02:03.808Z,973.54
2022-12-07T12:03:03.716Z,973.44
2022-12-07T12:04:03.537Z,973.44
2022-12-07T12:05:03.569Z,973.33
2022-12-07T12:06:05.552Z,973.47
2022-12-07T12:09:40.842Z,973.44
2022-12-07T12:20:02.920Z,973.31
2022-12-07T12:27:04.098Z,973.22
2022-12-07T12:33:03.637Z,973.38
2022-12-07T12:45:03.704Z,973.21
2022-12-07T12:46:03.435Z,973.32
2022-12-07T12:50:03.277Z,973.32
2022-12-07T12:56:03.470Z,973.18
2022-12-07T12:58:03.524Z,973.32
2022-12-07T13:00:03.601Z,973.26
2022-12-07T13:05:08.416Z,973.34
2022-12-07T13:06:35.024Z,973.22
2022-12-07T13:07:03.570Z,973.31
2022-12-07T13:08:03.545Z,973.22
2022-12-07T13:09:03.311Z,973.28
2022-12-07T13:10:03.296Z,973.19
2022-12-07T13:11:03.232Z,973.28
2022-12-07T13:12:03.169Z,973.17
2022-12-07T13:13:03.406Z,973.14
2022-12-07T13:14:03.209Z,973.25
2022-12-07T13:15:03.707Z,973.17
2022-12-07T13:16:03.720Z,973.22
2022-12-07T13:17:03.564Z,973.34